Skip Navigation Links Skip Navigation Links

Current Weather

Sohar Majis, Oman

For information only: do not use for flight planning or navigation.
Latest weather
Observation time Saturday, May 30, 2020 1:50 AM +04
Local time Saturday, May 30, 2020 2:53 AM +04
Flight conditions Conditions unknown
Winds
Wind direction South-Southeast (160°)
Wind speed 5 mph
Sky condition
Ceiling unlimited
Temperature 95°F
Dewpoint 46°F
Altimeter 29.53 in.Hg
Derived measurements
Relative humidity 19%
Heat index 95°F
Density altitude 2873 ft.
Remarks
Fully automated report.
METAR OOSH 292150Z AUTO 16004KT //// ////// 35/08 Q1000 RMK 0996

Settings

Location code

InnerDrive.Weather 4.0.6770.0 Release CLR 4.0.30319.42000
Copyright ©2018 Inner Drive Technology. All rights reserved. Portions Copyright ©1986-2018 David Braverman.

Find weather

Site navigation


Skip Navigation Links

Place info

Page info

PayPal - The safer, easier way to pay online!

Return home.

Copyright ©2020 Inner Drive Technology. Purveyors of fine, hand-crafted computer software. Page printed 2020-05-29T22:53:30 UTC.